createdAt,value
2023-04-21T00:00:15.775Z,100.00
2023-04-21T00:02:43.673Z,100.00
2023-04-21T00:05:13.857Z,100.00
2023-04-21T00:07:43.132Z,100.00
2023-04-21T00:10:12.086Z,100.00
2023-04-21T00:12:39.898Z,100.00
2023-04-21T00:15:08.942Z,100.00
2023-04-21T00:17:36.619Z,100.00
2023-04-21T00:20:07.058Z,100.00
2023-04-21T00:22:34.817Z,100.00
2023-04-21T00:25:04.175Z,100.00
2023-04-21T00:27:32.168Z,100.00
2023-04-21T00:29:59.945Z,100.00
2023-04-21T00:32:27.647Z,100.00
2023-04-21T00:34:55.631Z,100.00
2023-04-21T00:37:23.641Z,100.00
2023-04-21T00:39:51.590Z,100.00
2023-04-21T00:42:20.655Z,100.00
2023-04-21T00:44:48.614Z,100.00
2023-04-21T00:47:16.426Z,100.00
2023-04-21T00:49:44.226Z,100.00
2023-04-21T00:52:12.833Z,100.00
2023-04-21T00:54:40.934Z,100.00
2023-04-21T00:57:08.819Z,100.00
2023-04-21T00:59:38.068Z,100.00
2023-04-21T01:02:06.141Z,100.00
2023-04-21T01:04:37.089Z,100.00
2023-04-21T01:07:05.909Z,100.00
2023-04-21T01:09:34.236Z,100.00
2023-04-21T01:12:06.040Z,100.00
2023-04-21T01:14:36.224Z,100.00
2023-04-21T01:17:08.283Z,100.00
2023-04-21T01:19:40.250Z,100.00
2023-04-21T01:22:11.261Z,100.00
2023-04-21T01:24:40.355Z,100.00
2023-04-21T01:27:11.757Z,100.00
2023-04-21T01:29:40.857Z,100.00
2023-04-21T01:32:12.200Z,100.00
2023-04-21T01:34:40.634Z,100.00
2023-04-21T01:37:10.636Z,100.00
2023-04-21T01:39:39.484Z,100.00
2023-04-21T01:42:07.563Z,100.00
2023-04-21T01:44:37.285Z,100.00
2023-04-21T01:47:05.242Z,100.00
2023-04-21T01:49:32.969Z,100.00
2023-04-21T01:52:02.663Z,100.00
2023-04-21T01:54:32.305Z,100.00
2023-04-21T01:57:01.983Z,100.00
2023-04-21T01:59:29.929Z,100.00
2023-04-21T02:01:57.640Z,100.00
2023-04-21T02:04:25.872Z,100.00
2023-04-21T02:06:53.781Z,100.00
2023-04-21T02:09:21.855Z,100.00
2023-04-21T02:11:51.030Z,100.00
2023-04-21T02:14:19.182Z,100.00
2023-04-21T02:16:47.004Z,100.00
2023-04-21T02:19:14.794Z,100.00
2023-04-21T02:21:42.476Z,100.00
2023-04-21T02:24:10.192Z,100.00
2023-04-21T02:26:37.901Z,100.00
2023-04-21T02:29:07.666Z,100.00
2023-04-21T02:31:46.049Z,100.00
2023-04-21T02:34:22.635Z,100.00
2023-04-21T02:36:50.375Z,100.00
2023-04-21T02:39:18.638Z,100.00
2023-04-21T02:41:46.501Z,100.00
2023-04-21T02:44:15.500Z,100.00
2023-04-21T02:46:44.265Z,100.00
2023-04-21T02:49:12.140Z,100.00
2023-04-21T02:51:40.148Z,100.00
2023-04-21T02:54:08.590Z,100.00
2023-04-21T02:56:36.607Z,100.00
2023-04-21T02:59:04.380Z,100.00
2023-04-21T03:01:33.756Z,100.00
2023-04-21T03:04:02.013Z,100.00
2023-04-21T03:06:29.684Z,100.00
2023-04-21T03:08:57.456Z,100.00
2023-04-21T03:11:27.594Z,100.00
2023-04-21T03:13:55.720Z,100.00
2023-04-21T03:16:24.006Z,100.00
2023-04-21T03:18:53.212Z,100.00
2023-04-21T03:21:20.972Z,100.00
2023-04-21T03:23:48.787Z,100.00
2023-04-21T03:26:16.575Z,100.00
2023-04-21T03:28:44.459Z,100.00
2023-04-21T03:31:12.109Z,100.00
2023-04-21T03:33:39.909Z,100.00
2023-04-21T03:36:09.782Z,100.00
2023-04-21T03:38:39.310Z,100.00
2023-04-21T03:41:07.257Z,100.00
2023-04-21T03:43:36.332Z,100.00
2023-04-21T03:46:04.384Z,100.00
2023-04-21T03:48:32.554Z,100.00
2023-04-21T03:51:15.437Z,100.00
2023-04-21T03:53:43.293Z,100.00
2023-04-21T03:56:11.098Z,100.00
2023-04-21T03:58:38.853Z,100.00
2023-04-21T04:01:08.029Z,100.00
2023-04-21T04:03:36.803Z,100.00
2023-04-21T04:06:04.849Z,100.00
2023-04-21T04:08:33.829Z,100.00
2023-04-21T04:11:01.856Z,100.00
2023-04-21T04:13:30.382Z,100.00
2023-04-21T04:15:59.394Z,100.00
2023-04-21T04:18:27.272Z,100.00
2023-04-21T04:20:54.902Z,100.00
2023-04-21T04:23:22.812Z,100.00
2023-04-21T04:25:52.148Z,100.00
2023-04-21T04:28:20.042Z,100.00
2023-04-21T04:30:48.771Z,100.00
2023-04-21T04:33:16.401Z,100.00
2023-04-21T04:35:44.026Z,100.00
2023-04-21T04:38:12.674Z,100.00
2023-04-21T04:40:40.395Z,100.00
2023-04-21T04:43:10.868Z,100.00
2023-04-21T04:45:38.876Z,100.00
2023-04-21T04:48:07.459Z,100.00
2023-04-21T04:50:35.361Z,100.00
2023-04-21T04:53:03.229Z,100.00
2023-04-21T04:55:30.965Z,100.00
2023-04-21T04:57:58.665Z,100.00
2023-04-21T05:00:28.727Z,100.00
2023-04-21T05:02:56.732Z,100.00
2023-04-21T05:05:25.796Z,100.00
2023-04-21T05:07:53.750Z,100.00
2023-04-21T05:10:21.445Z,100.00
2023-04-21T05:12:49.120Z,100.00
2023-04-21T05:15:18.540Z,100.00
2023-04-21T05:17:47.586Z,100.00
2023-04-21T05:20:16.922Z,100.00
2023-04-21T05:22:44.769Z,100.00
2023-04-21T05:25:15.075Z,100.00
2023-04-21T05:27:42.874Z,100.00
2023-04-21T05:30:11.789Z,100.00
2023-04-21T05:32:39.638Z,100.00
2023-04-21T05:35:09.633Z,100.00
2023-04-21T05:37:38.125Z,100.00
2023-04-21T05:40:06.595Z,100.00
2023-04-21T05:42:34.310Z,100.00
2023-04-21T05:45:01.976Z,100.00
2023-04-21T05:47:29.721Z,100.00
2023-04-21T05:49:57.921Z,100.00
2023-04-21T05:52:27.046Z,100.00
2023-04-21T05:54:54.732Z,100.00
2023-04-21T05:57:22.336Z,100.00
2023-04-21T05:59:50.185Z,100.00
2023-04-21T06:02:18.082Z,100.00
2023-04-21T06:04:46.292Z,100.00
2023-04-21T06:07:14.777Z,100.00
2023-04-21T06:09:45.138Z,100.00
2023-04-21T06:12:12.780Z,100.00
2023-04-21T06:14:40.465Z,100.00
2023-04-21T06:17:08.295Z,100.00
2023-04-21T06:19:38.578Z,100.00
2023-04-21T06:22:06.316Z,100.00
2023-04-21T06:24:34.162Z,100.00
2023-04-21T06:27:03.168Z,100.00
2023-04-21T06:29:30.886Z,100.00
2023-04-21T06:31:58.771Z,100.00
2023-04-21T06:34:26.548Z,100.00
2023-04-21T06:36:54.229Z,100.00
2023-04-21T06:39:21.971Z,100.00
2023-04-21T06:41:49.762Z,100.00
2023-04-21T06:44:20.933Z,100.00
2023-04-21T06:46:48.821Z,100.00
2023-04-21T06:49:16.843Z,100.00
2023-04-21T06:51:44.683Z,100.00
2023-04-21T06:54:12.332Z,100.00
2023-04-21T06:56:41.449Z,100.00
2023-04-21T06:59:09.849Z,100.00
2023-04-21T07:01:39.053Z,100.00
2023-04-21T07:04:07.105Z,100.00
2023-04-21T07:06:35.193Z,100.00
2023-04-21T07:09:02.922Z,100.00
2023-04-21T07:11:31.631Z,100.00
2023-04-21T07:14:02.274Z,100.00
2023-04-21T07:16:30.268Z,100.00
2023-04-21T07:18:59.571Z,100.00
2023-04-21T07:21:27.657Z,100.00
2023-04-21T07:23:56.457Z,100.00
2023-04-21T07:26:25.138Z,100.00
2023-04-21T07:28:52.883Z,100.00
2023-04-21T07:31:20.717Z,100.00
2023-04-21T07:33:48.527Z,100.00
2023-04-21T07:36:17.982Z,100.00
2023-04-21T07:38:46.883Z,100.00
2023-04-21T07:41:15.235Z,100.00
2023-04-21T07:43:43.022Z,100.00
2023-04-21T07:46:10.895Z,100.00
2023-04-21T07:48:38.871Z,100.00
2023-04-21T07:51:09.289Z,100.00
2023-04-21T07:53:42.528Z,100.00
2023-04-21T07:56:15.691Z,100.00
2023-04-21T07:58:44.080Z,100.00
2023-04-21T08:01:12.736Z,100.00
2023-04-21T08:03:41.170Z,100.00
2023-04-21T08:06:09.577Z,100.00
2023-04-21T08:08:38.891Z,100.00
2023-04-21T08:11:07.371Z,100.00
2023-04-21T08:13:36.829Z,100.00
2023-04-21T08:16:05.256Z,100.00
2023-04-21T08:18:33.300Z,100.00
2023-04-21T08:21:02.321Z,100.00
2023-04-21T08:23:33.018Z,100.00
2023-04-21T08:26:03.587Z,100.00
2023-04-21T08:28:33.633Z,100.00
2023-04-21T08:31:02.194Z,100.00
2023-04-21T08:33:30.973Z,100.00
2023-04-21T08:36:05.510Z,100.00
2023-04-21T08:38:37.938Z,100.00
2023-04-21T08:41:07.518Z,100.00
2023-04-21T08:43:35.582Z,100.00
2023-04-21T08:46:07.118Z,100.00
2023-04-21T08:48:37.476Z,100.00
2023-04-21T08:51:09.741Z,100.00
2023-04-21T08:53:39.761Z,100.00
2023-04-21T08:56:11.664Z,100.00
2023-04-21T08:58:39.713Z,100.00
2023-04-21T09:01:07.536Z,100.00
2023-04-21T09:03:35.907Z,100.00
2023-04-21T09:06:06.611Z,100.00
2023-04-21T09:08:35.871Z,100.00
2023-04-21T09:11:04.114Z,100.00
2023-04-21T09:13:37.023Z,100.00
2023-04-21T09:16:15.786Z,100.00
2023-04-21T09:18:44.292Z,100.00
2023-04-21T09:21:14.171Z,100.00
2023-04-21T09:23:43.768Z,100.00
2023-04-21T09:26:12.152Z,100.00
2023-04-21T09:28:43.912Z,100.00
2023-04-21T09:31:16.262Z,100.00
2023-04-21T09:33:57.776Z,100.00
2023-04-21T09:36:28.739Z,100.00
2023-04-21T09:41:29.923Z,100.00
2023-04-21T09:44:01.316Z,100.00
2023-04-21T09:46:30.589Z,100.00
2023-04-21T09:49:01.342Z,100.00
2023-04-21T09:51:49.189Z,100.00
2023-04-21T09:54:29.718Z,100.00
2023-04-21T09:57:01.584Z,99.78
2023-04-21T09:59:36.049Z,96.69
2023-04-21T10:02:07.817Z,94.80
2023-04-21T10:04:38.896Z,91.34
2023-04-21T10:07:07.805Z,90.07
2023-04-21T10:09:41.926Z,85.09
2023-04-21T10:12:11.034Z,80.48
2023-04-21T10:14:40.333Z,77.29
2023-04-21T10:17:11.302Z,78.22
2023-04-21T10:19:49.566Z,85.18
2023-04-21T10:22:28.506Z,80.66
2023-04-21T10:24:57.059Z,80.38
2023-04-21T10:27:36.590Z,81.25
2023-04-21T10:33:06.667Z,85.51
2023-04-21T10:36:03.282Z,86.19
2023-04-21T10:38:42.456Z,86.24
2023-04-21T10:41:28.191Z,88.99
2023-04-21T10:43:59.802Z,88.49
2023-04-21T10:46:36.791Z,89.59
2023-04-21T10:49:11.565Z,86.31
2023-04-21T10:52:04.716Z,85.88
2023-04-21T10:54:46.142Z,87.24
2023-04-21T10:57:17.011Z,87.86
2023-04-21T10:59:45.874Z,89.50
2023-04-21T11:02:15.808Z,85.10
2023-04-21T11:04:48.665Z,83.61
2023-04-21T11:07:18.465Z,85.10
2023-04-21T11:09:47.827Z,82.06
2023-04-21T11:12:18.007Z,81.07
2023-04-21T11:14:48.299Z,76.88
2023-04-21T11:17:18.123Z,78.71
2023-04-21T11:19:48.510Z,74.40
2023-04-21T11:22:17.603Z,77.60
2023-04-21T11:24:46.310Z,75.61
2023-04-21T11:27:15.647Z,75.33
2023-04-21T11:29:43.769Z,72.80
2023-04-21T11:32:12.723Z,77.00
2023-04-21T11:34:41.211Z,73.65
2023-04-21T11:37:11.332Z,74.09
2023-04-21T11:39:42.895Z,75.38
2023-04-21T11:42:11.274Z,75.19
2023-04-21T11:44:40.813Z,74.82
2023-04-21T11:47:15.973Z,76.35
2023-04-21T11:49:51.016Z,73.22
2023-04-21T11:52:25.126Z,75.13
2023-04-21T11:54:57.877Z,73.87
2023-04-21T11:57:26.572Z,74.39
2023-04-21T11:59:54.876Z,75.28
2023-04-21T12:02:25.647Z,73.65
2023-04-21T12:05:01.893Z,75.55
2023-04-21T12:07:36.506Z,76.46
2023-04-21T12:10:11.626Z,73.81
2023-04-21T12:12:40.313Z,73.96
2023-04-21T12:15:09.628Z,72.57
2023-04-21T12:17:39.487Z,73.62
2023-04-21T12:20:08.945Z,71.44
2023-04-21T12:22:38.470Z,71.64
2023-04-21T12:25:07.248Z,70.80
2023-04-21T12:27:34.891Z,71.34
2023-04-21T12:30:03.167Z,72.07
2023-04-21T12:32:30.952Z,72.66
2023-04-21T12:35:00.535Z,72.18
2023-04-21T12:37:28.322Z,70.60
2023-04-21T12:39:57.489Z,70.20
2023-04-21T12:42:25.580Z,68.72
2023-04-21T12:44:53.651Z,69.38
2023-04-21T12:47:21.333Z,68.29
2023-04-21T12:49:49.422Z,67.41
2023-04-21T12:52:17.165Z,70.06
2023-04-21T12:54:44.974Z,66.86
2023-04-21T12:57:15.638Z,67.48
2023-04-21T13:02:56.151Z,68.30
2023-04-21T13:05:24.142Z,67.54
2023-04-21T13:07:51.928Z,67.90
2023-04-21T13:10:19.673Z,62.67
2023-04-21T13:12:48.787Z,62.08
2023-04-21T13:15:16.704Z,66.19
2023-04-21T13:17:44.523Z,68.03
2023-04-21T13:20:13.444Z,67.65
2023-04-21T13:22:41.889Z,68.77
2023-04-21T13:25:10.618Z,68.08
2023-04-21T13:27:40.057Z,68.10
2023-04-21T13:30:12.439Z,67.44
2023-04-21T13:32:40.969Z,68.44
2023-04-21T13:35:10.898Z,66.03
2023-04-21T13:37:39.400Z,65.69
2023-04-21T13:40:10.061Z,64.45
2023-04-21T13:42:38.718Z,64.51
2023-04-21T13:45:09.398Z,63.89
2023-04-21T13:47:37.323Z,63.44
2023-04-21T13:50:06.138Z,66.86
2023-04-21T13:52:36.194Z,66.54
2023-04-21T13:55:05.344Z,67.10
2023-04-21T13:57:33.384Z,65.75
2023-04-21T14:00:01.866Z,64.99
2023-04-21T14:02:34.012Z,64.10
2023-04-21T14:05:02.446Z,63.60
2023-04-21T14:07:30.690Z,62.44
2023-04-21T14:09:59.090Z,65.07
2023-04-21T14:12:27.023Z,63.92
2023-04-21T14:14:55.085Z,62.46
2023-04-21T14:17:23.808Z,64.02
2023-04-21T14:19:54.504Z,65.79
2023-04-21T14:22:23.115Z,64.27
2023-04-21T14:24:51.121Z,63.71
2023-04-21T14:27:18.856Z,64.86
2023-04-21T14:29:46.566Z,63.76
2023-04-21T14:32:14.447Z,65.14
2023-04-21T14:34:42.192Z,63.99
2023-04-21T14:37:11.663Z,64.42
2023-04-21T14:39:39.631Z,63.83
2023-04-21T14:42:07.685Z,63.63
2023-04-21T14:44:36.047Z,63.59
2023-04-21T14:47:09.940Z,64.57
2023-04-21T14:49:39.467Z,65.55
2023-04-21T14:52:07.895Z,65.97
2023-04-21T14:54:37.511Z,66.13
2023-04-21T14:57:19.683Z,64.84
2023-04-21T14:59:49.822Z,63.44
2023-04-21T15:02:18.503Z,63.34
2023-04-21T15:04:48.554Z,62.54
2023-04-21T15:07:19.913Z,63.99
2023-04-21T15:09:53.325Z,60.24
2023-04-21T15:12:21.586Z,60.93
2023-04-21T15:14:49.500Z,62.00
2023-04-21T15:17:17.349Z,61.21
2023-04-21T15:19:45.203Z,61.39
2023-04-21T15:22:15.225Z,64.26
2023-04-21T15:24:43.234Z,63.43
2023-04-21T15:27:12.694Z,64.15
2023-04-21T15:29:40.700Z,63.05
2023-04-21T15:32:08.581Z,61.37
2023-04-21T15:34:36.512Z,61.63
2023-04-21T15:37:04.547Z,64.01
2023-04-21T15:39:32.264Z,64.84
2023-04-21T15:42:00.043Z,63.40
2023-04-21T15:44:29.169Z,63.88
2023-04-21T15:46:57.236Z,63.21
2023-04-21T15:49:26.116Z,62.38
2023-04-21T15:51:54.311Z,62.60
2023-04-21T15:54:22.599Z,62.48
2023-04-21T15:56:50.516Z,63.99
2023-04-21T15:59:18.452Z,62.58
2023-04-21T16:01:47.923Z,63.29
2023-04-21T16:04:16.711Z,64.92
2023-04-21T16:06:45.017Z,63.82
2023-04-21T16:09:12.850Z,64.03
2023-04-21T16:11:41.061Z,61.93
2023-04-21T16:14:09.541Z,63.83
2023-04-21T16:16:37.760Z,62.50
2023-04-21T16:19:07.096Z,62.99
2023-04-21T16:21:35.276Z,62.40
2023-04-21T16:24:05.318Z,62.42
2023-04-21T16:26:35.598Z,63.16
2023-04-21T16:29:03.426Z,61.58
2023-04-21T16:31:31.474Z,62.09
2023-04-21T16:34:00.565Z,61.34
2023-04-21T16:36:31.200Z,62.57
2023-04-21T16:38:59.194Z,63.53
2023-04-21T16:41:27.292Z,64.03
2023-04-21T16:43:55.051Z,63.89
2023-04-21T16:46:25.313Z,62.34
2023-04-21T16:48:53.462Z,62.25
2023-04-21T16:51:21.772Z,62.87
2023-04-21T16:53:50.949Z,62.72
2023-04-21T16:56:20.389Z,60.17
2023-04-21T16:58:48.271Z,57.78
2023-04-21T17:01:16.920Z,60.66
2023-04-21T17:03:44.972Z,63.37
2023-04-21T17:06:17.235Z,65.19
2023-04-21T17:08:45.472Z,64.95
2023-04-21T17:11:14.933Z,65.88
2023-04-21T17:13:42.722Z,66.49
2023-04-21T17:16:10.667Z,69.48
2023-04-21T17:18:38.526Z,76.37
2023-04-21T17:21:06.928Z,80.34
2023-04-21T17:23:34.647Z,83.48
2023-04-21T17:26:03.647Z,89.48
2023-04-21T17:28:33.604Z,93.71
2023-04-21T17:31:14.340Z,100.00
2023-04-21T17:33:43.551Z,100.00
2023-04-21T17:36:11.378Z,100.00
2023-04-21T17:38:39.806Z,100.00
2023-04-21T17:41:08.439Z,100.00
2023-04-21T17:43:37.806Z,100.00
2023-04-21T17:46:08.118Z,100.00
2023-04-21T17:48:36.260Z,100.00
2023-04-21T17:51:04.557Z,100.00
2023-04-21T17:53:32.598Z,100.00
2023-04-21T17:56:01.057Z,100.00
2023-04-21T17:58:29.540Z,100.00
2023-04-21T18:00:59.380Z,100.00
2023-04-21T18:03:28.893Z,100.00
2023-04-21T18:05:57.233Z,100.00
2023-04-21T18:08:25.338Z,100.00
2023-04-21T18:10:53.193Z,100.00
2023-04-21T18:13:21.212Z,100.00
2023-04-21T18:15:49.441Z,100.00
2023-04-21T18:18:19.071Z,100.00
2023-04-21T18:20:47.062Z,100.00
2023-04-21T18:23:15.259Z,100.00
2023-04-21T18:25:43.392Z,100.00
2023-04-21T18:28:12.498Z,100.00
2023-04-21T18:30:40.980Z,100.00
2023-04-21T18:33:10.998Z,100.00
2023-04-21T18:35:42.186Z,100.00
2023-04-21T18:38:11.473Z,100.00
2023-04-21T18:40:40.518Z,100.00
2023-04-21T18:43:09.714Z,100.00
2023-04-21T18:45:38.759Z,100.00
2023-04-21T18:48:07.251Z,100.00
2023-04-21T18:50:40.520Z,100.00
2023-04-21T18:53:10.332Z,100.00
2023-04-21T18:55:38.471Z,100.00
2023-04-21T18:58:07.043Z,100.00
2023-04-21T19:00:37.347Z,100.00
2023-04-21T19:03:06.145Z,100.00
2023-04-21T19:05:36.007Z,100.00
2023-04-21T19:08:03.969Z,100.00
2023-04-21T19:10:35.450Z,100.00
2023-04-21T19:13:03.286Z,100.00
2023-04-21T19:15:31.983Z,100.00
2023-04-21T19:17:59.777Z,100.00
2023-04-21T19:20:27.742Z,100.00
2023-04-21T19:22:55.583Z,100.00
2023-04-21T19:25:23.274Z,100.00
2023-04-21T19:27:52.352Z,100.00
2023-04-21T19:30:21.621Z,100.00
2023-04-21T19:32:49.423Z,100.00
2023-04-21T19:35:17.325Z,100.00
2023-04-21T19:37:45.146Z,100.00
2023-04-21T19:40:13.248Z,100.00
2023-04-21T19:42:41.973Z,100.00
2023-04-21T19:45:12.195Z,100.00
2023-04-21T19:47:40.482Z,100.00
2023-04-21T19:50:10.459Z,100.00
2023-04-21T19:52:38.243Z,100.00
2023-04-21T19:55:06.691Z,100.00
2023-04-21T19:57:35.642Z,100.00
2023-04-21T20:00:05.748Z,100.00
2023-04-21T20:02:42.726Z,100.00
2023-04-21T20:05:11.010Z,100.00
2023-04-21T20:07:39.489Z,100.00
2023-04-21T20:10:08.803Z,100.00
2023-04-21T20:12:37.361Z,100.00
2023-04-21T20:15:06.624Z,100.00
2023-04-21T20:17:34.405Z,100.00
2023-04-21T20:20:05.248Z,100.00
2023-04-21T20:22:32.973Z,100.00
2023-04-21T20:25:00.673Z,100.00
2023-04-21T20:27:28.406Z,100.00
2023-04-21T20:29:56.161Z,100.00
2023-04-21T20:32:23.875Z,100.00
2023-04-21T20:34:53.341Z,100.00
2023-04-21T20:37:23.248Z,100.00
2023-04-21T20:39:51.124Z,100.00
2023-04-21T20:42:19.236Z,100.00
2023-04-21T20:44:47.260Z,100.00
2023-04-21T20:47:15.707Z,100.00
2023-04-21T20:49:43.656Z,100.00
2023-04-21T20:52:11.514Z,100.00
2023-04-21T20:54:40.764Z,100.00
2023-04-21T20:57:10.193Z,100.00
2023-04-21T20:59:38.395Z,100.00
2023-04-21T21:02:06.845Z,100.00
2023-04-21T21:04:34.670Z,100.00
2023-04-21T21:07:03.124Z,100.00
2023-04-21T21:09:31.532Z,100.00
2023-04-21T21:12:02.583Z,100.00
2023-04-21T21:14:30.568Z,100.00
2023-04-21T21:16:58.432Z,100.00
2023-04-21T21:19:26.164Z,100.00
2023-04-21T21:21:54.138Z,100.00
2023-04-21T21:24:21.846Z,100.00
2023-04-21T21:26:49.468Z,100.00
2023-04-21T21:29:18.947Z,100.00
2023-04-21T21:31:46.640Z,100.00
2023-04-21T21:34:14.466Z,100.00
2023-04-21T21:36:42.597Z,100.00
2023-04-21T21:39:11.399Z,100.00
2023-04-21T21:41:39.703Z,100.00
2023-04-21T21:44:07.687Z,100.00
2023-04-21T21:46:37.001Z,100.00
2023-04-21T21:49:04.923Z,100.00
2023-04-21T21:51:33.064Z,100.00
2023-04-21T21:54:00.881Z,100.00
2023-04-21T21:56:29.412Z,100.00
2023-04-21T21:58:57.257Z,100.00
2023-04-21T22:01:25.719Z,100.00
2023-04-21T22:03:55.427Z,100.00
2023-04-21T22:06:24.324Z,100.00
2023-04-21T22:08:52.619Z,100.00
2023-04-21T22:11:20.716Z,100.00
2023-04-21T22:13:48.881Z,100.00
2023-04-21T22:16:16.996Z,100.00
2023-04-21T22:18:45.366Z,100.00
2023-04-21T22:21:14.683Z,100.00
2023-04-21T22:23:42.794Z,100.00
2023-04-21T22:26:10.643Z,100.00
2023-04-21T22:28:38.449Z,100.00
2023-04-21T22:31:06.530Z,100.00
2023-04-21T22:33:34.480Z,100.00
2023-04-21T22:36:02.296Z,100.00
2023-04-21T22:38:31.328Z,100.00
2023-04-21T22:40:59.029Z,100.00
2023-04-21T22:43:26.918Z,100.00
2023-04-21T22:45:54.843Z,100.00
2023-04-21T22:48:26.054Z,100.00
2023-04-21T22:50:55.383Z,100.00
2023-04-21T22:53:23.043Z,100.00
2023-04-21T22:55:52.855Z,100.00
2023-04-21T22:58:20.803Z,100.00
2023-04-21T23:00:49.492Z,100.00
2023-04-21T23:03:17.514Z,100.00
2023-04-21T23:05:45.449Z,100.00
2023-04-21T23:08:13.084Z,100.00
2023-04-21T23:10:41.394Z,100.00
2023-04-21T23:13:10.711Z,100.00
2023-04-21T23:15:38.682Z,100.00
2023-04-21T23:18:06.801Z,100.00
2023-04-21T23:20:34.872Z,100.00
2023-04-21T23:23:02.517Z,100.00
2023-04-21T23:25:30.654Z,100.00
2023-04-21T23:27:58.458Z,100.00
2023-04-21T23:30:27.600Z,100.00
2023-04-21T23:32:55.964Z,100.00
2023-04-21T23:35:24.234Z,100.00
2023-04-21T23:37:52.745Z,100.00
2023-04-21T23:40:21.028Z,100.00
2023-04-21T23:42:49.314Z,100.00
2023-04-21T23:45:17.675Z,100.00
2023-04-21T23:47:47.508Z,100.00
2023-04-21T23:50:15.395Z,100.00
2023-04-21T23:52:44.060Z,100.00
2023-04-21T23:55:12.262Z,100.00
2023-04-21T23:57:40.252Z,100.00
